Time;durP1;ratioP1;P1;durP2;ratioP2;P2;SDS_P1;SDS_P2;PMS_P1;PMS_P2;Temp;Humidity;BMP_temperature;BMP_pressure;BME280_temperature;BME280_humidity;BME280_pressure;Samples;Min_cycle;Max_cycle;Signal;HPM_P1;HPM_P2
2022/04/03 00:00:38;;;;;;;1.67;1.37;;;2.60;98.00;;;;;;6119785;23;20535;-66
2022/04/03 00:03:05;;;;;;;1.10;1.10;;;2.70;98.00;;;;;;6120857;23;20417;-66
2022/04/03 00:05:37;;;;;;;1.20;1.10;;;2.80;98.00;;;;;;6120670;23;20460;-66
2022/04/03 00:08:05;;;;;;;1.20;1.10;;;2.80;98.00;;;;;;6120867;23;20405;-65
2022/04/03 00:10:32;;;;;;;1.50;1.40;;;2.80;98.00;;;;;;6120471;23;20421;-65
2022/04/03 00:12:59;;;;;;;1.20;1.20;;;2.90;98.00;;;;;;6120737;23;20421;-66
2022/04/03 00:15:26;;;;;;;1.10;0.97;;;2.90;98.00;;;;;;6120621;23;20476;-66
2022/04/03 00:17:54;;;;;;;1.10;1.00;;;2.90;98.00;;;;;;6120948;23;20828;-65
2022/04/03 00:20:21;;;;;;;1.10;1.00;;;2.80;98.00;;;;;;6120354;23;20920;-65
2022/04/03 00:22:49;;;;;;;1.10;1.10;;;2.90;98.00;;;;;;6120626;23;20443;-65
2022/04/03 00:25:18;;;;;;;1.10;1.00;;;2.80;98.00;;;;;;6120458;23;21079;-65
2022/04/03 00:27:45;;;;;;;1.30;1.30;;;2.90;98.00;;;;;;6095078;23;20424;-65
2022/04/03 00:30:12;;;;;;;1.10;1.00;;;2.80;98.00;;;;;;6120091;23;20421;-65
2022/04/03 00:32:40;;;;;;;1.43;1.33;;;2.80;98.00;;;;;;6094523;23;20500;-65
2022/04/03 00:35:09;;;;;;;2.33;2.13;;;2.80;98.00;;;;;;6120537;23;20485;-65
2022/04/03 00:37:36;;;;;;;1.20;1.17;;;2.70;98.00;;;;;;6120197;23;20434;-65
2022/04/03 00:40:04;;;;;;;2.40;1.77;;;2.70;98.00;;;;;;6120567;23;20447;-65
2022/04/03 00:42:34;;;;;;;1.33;1.27;;;2.70;98.00;;;;;;6120496;23;20467;-65
2022/04/03 00:45:02;;;;;;;1.10;1.00;;;2.70;98.00;;;;;;6120395;23;20399;-66
2022/04/03 00:47:30;;;;;;;3.97;2.07;;;2.80;98.00;;;;;;6094383;23;20429;-65
2022/04/03 00:49:57;;;;;;;1.10;0.90;;;2.90;98.00;;;;;;6119851;23;20472;-65
2022/04/03 00:52:26;;;;;;;1.20;1.10;;;2.90;98.00;;;;;;6120178;23;20460;-65
2022/04/03 00:54:52;;;;;;;1.10;1.00;;;2.90;98.00;;;;;;6119875;23;20443;-65
2022/04/03 00:57:24;;;;;;;1.30;1.10;;;2.80;98.00;;;;;;6120074;23;20488;-65
2022/04/03 00:59:51;;;;;;;1.40;1.23;;;2.70;98.00;;;;;;6120001;23;20404;-65
2022/04/03 01:02:18;;;;;;;2.90;1.93;;;2.60;98.00;;;;;;6120132;23;20427;-65
2022/04/03 01:04:45;;;;;;;1.20;1.20;;;2.50;98.00;;;;;;6120083;23;20405;-65
2022/04/03 01:07:13;;;;;;;1.40;1.37;;;2.50;98.00;;;;;;6120403;23;20421;-65
2022/04/03 01:09:42;;;;;;;1.40;1.30;;;2.60;98.00;;;;;;6120324;23;20483;-65
2022/04/03 01:12:10;;;;;;;1.47;1.27;;;2.70;98.00;;;;;;6120516;23;20413;-65
2022/04/03 01:14:39;;;;;;;1.20;1.20;;;2.80;98.00;;;;;;6119940;23;20421;-65
2022/04/03 01:17:07;;;;;;;1.10;1.00;;;2.70;98.00;;;;;;6094985;23;20428;-65
2022/04/03 01:19:34;;;;;;;1.13;1.07;;;2.60;98.00;;;;;;6120407;23;20797;-65
2022/04/03 01:22:01;;;;;;;1.20;1.20;;;2.60;98.00;;;;;;6120115;23;20457;-65
2022/04/03 01:24:30;;;;;;;2.47;1.30;;;2.60;98.00;;;;;;6120534;23;20747;-65
2022/04/03 01:26:58;;;;;;;1.30;1.20;;;2.70;98.00;;;;;;6120147;23;20422;-65
2022/04/03 01:29:26;;;;;;;1.20;1.20;;;2.70;98.00;;;;;;6120470;23;20402;-65
2022/04/03 01:31:54;;;;;;;1.20;1.20;;;2.70;98.00;;;;;;6119942;23;20413;-65
2022/04/03 01:34:21;;;;;;;1.10;1.00;;;2.60;98.00;;;;;;6120245;23;20405;-65
2022/04/03 01:36:49;;;;;;;2.13;1.77;;;2.60;98.00;;;;;;6120054;23;20489;-65
2022/04/03 01:39:17;;;;;;;1.80;1.70;;;2.60;98.00;;;;;;6120135;23;20768;-65
2022/04/03 01:41:45;;;;;;;1.63;1.53;;;2.70;98.00;;;;;;6119771;23;20794;-65
2022/04/03 01:44:14;;;;;;;1.27;1.23;;;2.70;98.00;;;;;;6120364;23;20466;-65
2022/04/03 01:46:41;;;;;;;1.57;1.47;;;2.70;98.00;;;;;;6119883;23;20453;-65
2022/04/03 01:49:09;;;;;;;1.20;1.20;;;2.80;98.00;;;;;;6120073;23;20449;-65
2022/04/03 01:51:38;;;;;;;1.20;1.20;;;2.80;98.00;;;;;;6120045;23;20413;-65
2022/04/03 01:54:05;;;;;;;2.33;1.40;;;2.90;98.00;;;;;;6119661;23;20491;-65
2022/04/03 01:56:34;;;;;;;1.40;1.30;;;2.80;98.00;;;;;;6119828;23;20397;-65
2022/04/03 01:59:02;;;;;;;1.97;1.40;;;2.80;98.00;;;;;;6119847;23;20430;-65
2022/04/03 02:01:31;;;;;;;2.23;1.57;;;2.80;98.00;;;;;;6120256;23;20435;-65
2022/04/03 02:04:00;;;;;;;1.50;1.40;;;2.80;98.00;;;;;;6120412;23;20756;-65
2022/04/03 02:06:27;;;;;;;1.10;1.10;;;2.80;98.00;;;;;;6120116;23;20406;-66
2022/04/03 02:08:54;;;;;;;1.27;1.17;;;2.70;98.00;;;;;;6119803;23;20458;-65
2022/04/03 02:11:21;;;;;;;1.50;1.10;;;2.70;98.00;;;;;;6119940;23;20715;-65
2022/04/03 02:13:48;;;;;;;1.47;1.37;;;2.60;98.00;;;;;;6119981;23;20413;-65
2022/04/03 02:16:15;;;;;;;1.57;1.47;;;2.50;98.00;;;;;;6119397;23;20428;-65
2022/04/03 02:18:44;;;;;;;3.00;2.77;;;2.60;98.00;;;;;;6119427;23;20448;-65
2022/04/03 02:21:11;;;;;;;1.13;1.00;;;2.70;98.00;;;;;;6119648;23;20452;-65
2022/04/03 02:23:38;;;;;;;2.50;1.73;;;2.60;98.00;;;;;;6120144;23;20412;-65
2022/04/03 02:26:05;;;;;;;1.40;1.30;;;2.50;98.00;;;;;;6119701;23;20739;-65
2022/04/03 02:28:32;;;;;;;1.20;1.20;;;2.20;98.00;;;;;;6120299;23;20428;-65
2022/04/03 02:30:59;;;;;;;1.53;1.47;;;2.10;98.00;;;;;;6120875;23;20451;-65
2022/04/03 02:33:27;;;;;;;1.20;1.13;;;2.20;98.00;;;;;;6120612;23;20415;-65
2022/04/03 02:35:56;;;;;;;2.17;1.73;;;2.20;98.00;;;;;;6120611;23;20400;-65
2022/04/03 02:38:23;;;;;;;1.77;1.60;;;2.30;98.00;;;;;;6120555;23;20464;-65
2022/04/03 02:40:50;;;;;;;1.63;1.40;;;2.30;98.00;;;;;;6120924;23;20441;-65
2022/04/03 02:43:17;;;;;;;1.30;1.30;;;2.20;98.00;;;;;;6120633;23;20397;-65
2022/04/03 02:45:44;;;;;;;1.20;1.20;;;2.20;98.00;;;;;;6120849;23;20420;-65
2022/04/03 02:48:11;;;;;;;1.30;1.30;;;2.30;98.00;;;;;;6120932;23;20406;-65
2022/04/03 02:50:41;;;;;;;3.17;2.87;;;2.40;98.00;;;;;;6120437;23;20424;-65
2022/04/03 02:53:09;;;;;;;2.13;1.97;;;2.30;98.00;;;;;;6120716;23;20433;-65
2022/04/03 02:55:37;;;;;;;1.20;1.13;;;2.50;98.00;;;;;;6121165;23;20786;-65
2022/04/03 02:58:04;;;;;;;1.83;1.60;;;2.30;98.00;;;;;;6120929;23;20436;-65
2022/04/03 03:00:33;;;;;;;1.20;1.20;;;2.40;98.00;;;;;;6121246;23;20523;-65
2022/04/03 03:03:02;;;;;;;1.20;1.10;;;2.40;98.00;;;;;;6120882;23;20481;-65
2022/04/03 03:05:29;;;;;;;2.03;1.67;;;2.40;98.00;;;;;;6095476;23;20421;-65
2022/04/03 03:07:56;;;;;;;1.87;1.70;;;2.40;98.00;;;;;;6120513;23;20478;-65
2022/04/03 03:10:24;;;;;;;1.30;1.23;;;2.40;98.00;;;;;;6095027;23;20433;-65
2022/04/03 03:12:52;;;;;;;1.37;1.37;;;2.30;98.00;;;;;;6120804;23;20405;-65
2022/04/03 03:15:19;;;;;;;1.50;1.43;;;2.30;98.00;;;;;;6120352;23;20402;-65
2022/04/03 03:17:47;;;;;;;1.10;0.93;;;2.30;98.00;;;;;;6095272;23;20418;-65
2022/04/03 03:20:14;;;;;;;1.87;1.77;;;2.40;98.00;;;;;;6120698;23;20466;-65
2022/04/03 03:22:41;;;;;;;1.10;0.97;;;2.40;98.00;;;;;;6120733;23;20463;-65
2022/04/03 03:25:09;;;;;;;2.40;1.90;;;2.40;98.00;;;;;;6120144;23;20931;-65
2022/04/03 03:27:39;;;;;;;1.83;1.50;;;2.50;98.00;;;;;;6120704;23;20417;-65
2022/04/03 03:30:08;;;;;;;1.50;1.37;;;2.60;98.00;;;;;;6120344;23;20428;-65
2022/04/03 03:32:35;;;;;;;1.80;1.43;;;2.60;98.00;;;;;;6120888;23;20938;-65
2022/04/03 03:35:02;;;;;;;1.70;1.47;;;2.70;98.00;;;;;;6120702;23;20444;-65
2022/04/03 03:37:29;;;;;;;2.07;1.60;;;2.60;98.00;;;;;;6120675;23;20419;-65
2022/04/03 03:39:57;;;;;;;2.53;1.50;;;2.60;98.00;;;;;;6120443;23;20487;-65
2022/04/03 03:42:24;;;;;;;1.97;1.87;;;2.70;98.00;;;;;;6120782;23;20397;-65
2022/04/03 03:44:52;;;;;;;2.33;1.90;;;2.80;98.00;;;;;;6121211;23;20436;-65
2022/04/03 03:47:20;;;;;;;1.30;1.20;;;2.70;98.00;;;;;;6120905;23;20755;-65
2022/04/03 03:49:47;;;;;;;2.63;1.77;;;2.60;98.00;;;;;;6120201;23;20429;-65
2022/04/03 03:52:14;;;;;;;1.10;1.00;;;2.60;98.00;;;;;;6120662;23;20453;-65
2022/04/03 03:54:42;;;;;;;1.50;1.43;;;2.60;98.00;;;;;;6121051;23;20440;-65
2022/04/03 03:57:09;;;;;;;2.80;2.30;;;2.50;98.00;;;;;;6120619;23;20410;-64
2022/04/03 03:59:36;;;;;;;1.70;1.53;;;2.60;98.00;;;;;;6120203;23;20433;-64
2022/04/03 04:02:05;;;;;;;1.20;1.10;;;2.60;98.00;;;;;;6120601;23;21035;-64
2022/04/03 04:04:32;;;;;;;3.57;1.80;;;2.60;98.00;;;;;;6120206;23;20424;-65
2022/04/03 04:06:59;;;;;;;2.07;1.83;;;2.60;98.00;;;;;;6120552;23;20405;-65
2022/04/03 04:09:26;;;;;;;1.17;1.00;;;2.60;98.00;;;;;;6120240;23;20441;-65
2022/04/03 04:11:52;;;;;;;1.70;1.33;;;2.40;98.00;;;;;;6120531;23;20791;-64
2022/04/03 04:14:19;;;;;;;1.87;1.77;;;2.50;98.00;;;;;;6120511;23;20445;-64
2022/04/03 04:16:47;;;;;;;1.47;1.30;;;2.60;98.00;;;;;;6120696;23;20402;-64
2022/04/03 04:19:16;;;;;;;1.63;1.63;;;2.60;98.00;;;;;;6120097;23;20481;-64
2022/04/03 04:21:43;;;;;;;1.53;1.37;;;2.60;98.00;;;;;;6120307;23;20881;-65
2022/04/03 04:24:11;;;;;;;1.10;1.00;;;2.80;98.00;;;;;;6120459;23;20457;-64
2022/04/03 04:26:38;;;;;;;1.40;1.33;;;2.80;98.00;;;;;;6120483;23;21053;-65
2022/04/03 04:29:05;;;;;;;1.93;1.67;;;2.80;98.00;;;;;;6120826;23;20424;-65
2022/04/03 04:31:32;;;;;;;1.30;1.10;;;2.80;98.00;;;;;;6120734;23;20949;-65
2022/04/03 04:33:59;;;;;;;1.10;1.00;;;2.70;98.00;;;;;;6120637;23;20479;-64
2022/04/03 04:36:28;;;;;;;2.50;1.27;;;2.70;98.00;;;;;;6120590;23;20500;-65
2022/04/03 04:38:57;;;;;;;1.67;1.27;;;2.70;98.00;;;;;;6121824;23;20452;-65
2022/04/03 04:41:24;;;;;;;1.30;1.27;;;2.70;98.00;;;;;;6121326;23;20805;-65
2022/04/03 04:43:51;;;;;;;1.10;1.00;;;2.80;98.00;;;;;;6095661;23;20472;-65
2022/04/03 04:46:20;;;;;;;2.13;1.97;;;2.70;98.00;;;;;;6120332;23;20438;-64
2022/04/03 04:48:53;;;;;;;1.73;1.60;;;2.80;98.00;;;;;;6120710;23;20473;-65
2022/04/03 04:51:20;;;;;;;2.50;1.47;;;2.80;98.00;;;;;;6120243;23;20915;-65
2022/04/03 04:53:48;;;;;;;1.10;1.00;;;2.70;98.00;;;;;;6120528;23;20447;-64
2022/04/03 04:56:15;;;;;;;1.10;1.00;;;2.70;98.00;;;;;;6120113;23;20420;-64
2022/04/03 04:58:42;;;;;;;1.20;1.10;;;2.70;98.00;;;;;;6119878;23;20491;-65
2022/04/03 05:01:09;;;;;;;1.13;1.00;;;2.70;98.00;;;;;;6120472;23;20437;-65
2022/04/03 05:03:36;;;;;;;1.10;0.90;;;2.70;98.00;;;;;;6120090;23;20834;-64
2022/04/03 05:06:03;;;;;;;1.37;1.30;;;2.60;98.00;;;;;;6119946;23;20928;-64
2022/04/03 05:08:31;;;;;;;2.90;1.57;;;2.70;98.00;;;;;;6120282;23;20727;-64
2022/04/03 05:11:02;;;;;;;1.20;1.10;;;2.70;98.00;;;;;;6120302;23;20452;-65
2022/04/03 05:13:29;;;;;;;1.30;1.30;;;2.70;98.00;;;;;;6120420;23;20406;-64
2022/04/03 05:16:00;;;;;;;1.33;1.30;;;2.70;98.00;;;;;;6120394;23;20406;-64
2022/04/03 05:18:27;;;;;;;1.40;1.30;;;2.70;98.00;;;;;;6119972;23;20464;-65
2022/04/03 05:20:54;;;;;;;1.10;1.00;;;2.80;98.00;;;;;;6119875;23;20429;-64
2022/04/03 05:23:21;;;;;;;1.20;1.10;;;2.70;98.00;;;;;;6120389;23;20786;-64
2022/04/03 05:25:48;;;;;;;1.20;1.10;;;2.70;98.00;;;;;;6120030;23;20405;-65
2022/04/03 05:28:17;;;;;;;1.20;1.10;;;2.80;98.00;;;;;;6120420;23;20800;-64
2022/04/03 05:30:44;;;;;;;1.60;1.50;;;2.80;98.00;;;;;;6046967;23;20422;-64
2022/04/03 05:33:11;;;;;;;1.10;1.00;;;2.80;98.00;;;;;;6120458;23;20467;-64
2022/04/03 05:35:38;;;;;;;1.70;1.30;;;2.80;98.00;;;;;;6120246;23;20449;-65
2022/04/03 05:38:07;;;;;;;1.17;1.17;;;2.70;98.00;;;;;;6120270;23;20420;-66
2022/04/03 05:40:34;;;;;;;1.10;1.10;;;2.70;98.00;;;;;;6119985;23;20568;-65
2022/04/03 05:43:04;;;;;;;2.30;1.40;;;2.80;98.00;;;;;;6120009;23;20724;-64
2022/04/03 05:45:33;;;;;;;1.67;1.27;;;2.80;98.00;;;;;;6095353;23;20455;-65
2022/04/03 05:48:01;;;;;;;1.83;1.50;;;2.90;98.00;;;;;;6120100;23;20413;-65
2022/04/03 05:50:28;;;;;;;1.30;1.20;;;2.80;98.00;;;;;;6119791;23;20907;-65
2022/04/03 05:52:55;;;;;;;1.60;1.53;;;2.70;98.00;;;;;;6120081;23;20522;-65
2022/04/03 05:55:23;;;;;;;1.83;1.50;;;2.60;98.00;;;;;;6120055;23;20893;-65
2022/04/03 05:57:52;;;;;;;1.63;1.30;;;2.50;98.00;;;;;;6119860;23;20405;-65
2022/04/03 06:00:22;;;;;;;1.10;1.00;;;2.30;98.00;;;;;;6120050;23;20833;-66
2022/04/03 06:02:53;;;;;;;1.20;1.20;;;2.30;98.00;;;;;;6119896;23;20428;-65
2022/04/03 06:05:22;;;;;;;1.20;1.00;;;2.50;98.00;;;;;;6119821;23;20481;-66
2022/04/03 06:07:49;;;;;;;1.10;1.10;;;2.50;98.00;;;;;;6119949;23;20481;-65
2022/04/03 06:10:16;;;;;;;1.10;1.10;;;2.60;98.00;;;;;;6119971;23;20910;-65
2022/04/03 06:12:54;;;;;;;1.20;1.20;;;2.60;98.00;;;;;;6093798;23;20427;-66
2022/04/03 06:15:21;;;;;;;1.10;0.90;;;2.70;98.00;;;;;;6119868;23;20447;-65
2022/04/03 06:17:49;;;;;;;1.20;1.10;;;2.70;98.00;;;;;;6119722;23;20409;-65
2022/04/03 06:20:17;;;;;;;1.10;1.00;;;2.90;98.00;;;;;;6119702;23;20436;-65
2022/04/03 06:22:44;;;;;;;1.50;1.40;;;2.90;98.00;;;;;;6120214;23;20734;-65
2022/04/03 06:25:12;;;;;;;1.10;0.93;;;3.00;98.00;;;;;;6093715;23;20429;-66
2022/04/03 06:27:39;;;;;;;1.10;1.00;;;3.00;98.00;;;;;;6119882;23;20401;-65
2022/04/03 06:30:07;;;;;;;1.30;1.10;;;2.80;98.00;;;;;;6119548;23;20438;-65
2022/04/03 06:32:34;;;;;;;1.20;1.13;;;2.70;98.00;;;;;;6119719;23;20444;-66
2022/04/03 06:35:01;;;;;;;1.60;1.60;;;2.70;98.00;;;;;;6119340;23;20425;-66
2022/04/03 06:37:31;;;;;;;1.20;1.10;;;2.60;98.00;;;;;;6119329;23;20421;-66
2022/04/03 06:39:58;;;;;;;2.50;2.13;;;2.70;98.00;;;;;;6069534;23;20452;-66
2022/04/03 06:42:26;;;;;;;1.27;1.23;;;2.90;98.00;;;;;;6119296;23;20452;-64
2022/04/03 06:44:54;;;;;;;1.23;1.20;;;2.80;98.00;;;;;;6119495;23;20457;-65
2022/04/03 06:47:21;;;;;;;1.77;1.30;;;2.90;98.00;;;;;;6119569;23;20421;-66
2022/04/03 06:49:48;;;;;;;1.40;1.33;;;2.90;98.00;;;;;;6134177;23;20421;-65
2022/04/03 06:52:15;;;;;;;1.20;1.00;;;2.90;98.00;;;;;;6243675;22;20444;-66
2022/04/03 06:54:45;;;;;;;1.20;1.10;;;3.00;98.00;;;;;;6243694;22;20491;-66
2022/04/03 06:57:14;;;;;;;1.47;1.20;;;2.90;98.00;;;;;;6243599;22;20416;-65
2022/04/03 06:59:42;;;;;;;1.20;1.10;;;2.90;98.00;;;;;;6243687;22;20430;-65
2022/04/03 07:02:09;;;;;;;1.20;1.20;;;2.90;98.00;;;;;;6243484;22;20414;-66
2022/04/03 07:04:36;;;;;;;1.90;1.80;;;2.90;98.00;;;;;;6243670;22;20413;-65
2022/04/03 07:07:03;;;;;;;1.20;1.17;;;3.00;98.00;;;;;;6242891;22;20934;-65
2022/04/03 07:09:31;;;;;;;1.20;1.10;;;2.90;98.00;;;;;;6243711;22;20787;-66
2022/04/03 07:11:59;;;;;;;1.20;1.10;;;2.90;98.00;;;;;;6243913;22;20732;-65
2022/04/03 07:14:26;;;;;;;1.30;1.20;;;2.70;98.00;;;;;;6244810;22;20413;-65
2022/04/03 07:16:53;;;;;;;1.30;1.10;;;2.70;98.00;;;;;;6245369;22;20417;-65
2022/04/03 07:19:20;;;;;;;1.20;1.13;;;2.70;98.00;;;;;;6245138;22;20429;-65
2022/04/03 07:21:47;;;;;;;1.30;1.30;;;2.80;98.00;;;;;;6245461;22;20449;-65
2022/04/03 07:24:14;;;;;;;1.20;1.20;;;3.00;98.00;;;;;;6245560;22;20800;-65
2022/04/03 07:26:41;;;;;;;1.50;1.47;;;2.90;98.00;;;;;;6245490;22;20728;-66
2022/04/03 07:29:09;;;;;;;1.20;1.10;;;2.90;98.00;;;;;;6245571;22;20448;-64
2022/04/03 07:31:39;;;;;;;1.10;1.10;;;3.00;98.00;;;;;;6244572;22;20447;-66
2022/04/03 07:34:06;;;;;;;1.10;0.90;;;3.00;98.00;;;;;;6243055;23;20426;-66
2022/04/03 07:36:33;;;;;;;1.53;1.50;;;3.10;98.00;;;;;;6245003;22;20429;-67
2022/04/03 07:39:00;;;;;;;1.40;1.40;;;3.20;98.00;;;;;;6244598;22;20442;-67
2022/04/03 07:41:27;;;;;;;1.70;1.43;;;3.30;98.00;;;;;;6245366;22;20410;-66
2022/04/03 07:43:54;;;;;;;1.40;1.30;;;3.20;98.00;;;;;;6245233;22;20414;-66
2022/04/03 07:46:22;;;;;;;1.40;1.40;;;3.40;98.00;;;;;;6244697;22;20445;-66
2022/04/03 07:48:49;;;;;;;1.10;0.90;;;3.50;98.00;;;;;;6245053;22;20425;-66
2022/04/03 07:51:16;;;;;;;1.20;1.10;;;3.40;98.00;;;;;;6243006;23;20421;-66
2022/04/03 07:53:43;;;;;;;1.20;1.00;;;3.30;98.00;;;;;;6245106;22;20409;-67
2022/04/03 07:56:10;;;;;;;2.30;1.63;;;3.30;98.00;;;;;;6244687;22;20702;-66
2022/04/03 07:58:37;;;;;;;1.20;1.10;;;3.30;98.00;;;;;;6245106;22;20754;-66
2022/04/03 08:01:05;;;;;;;1.20;1.10;;;3.30;98.00;;;;;;6244707;22;20439;-66
2022/04/03 08:03:33;;;;;;;1.67;1.57;;;3.60;98.00;;;;;;6244898;22;20402;-66
2022/04/03 08:06:00;;;;;;;1.20;1.10;;;3.90;98.00;;;;;;6245147;22;20451;-66
2022/04/03 08:08:27;;;;;;;1.20;1.17;;;4.00;98.00;;;;;;6245197;22;20398;-67
2022/04/03 08:10:54;;;;;;;1.20;1.00;;;4.20;98.00;;;;;;6244908;22;20445;-66
2022/04/03 08:13:27;;;;;;;1.47;1.43;;;4.30;98.00;;;;;;6244663;22;20963;-67
2022/04/03 08:15:54;;;;;;;1.20;1.00;;;4.40;98.00;;;;;;6244254;22;20398;-66
2022/04/03 08:18:22;;;;;;;2.13;1.87;;;4.60;98.00;;;;;;6244435;22;20390;-68
2022/04/03 08:20:51;;;;;;;1.70;1.53;;;4.50;98.00;;;;;;6244742;22;20461;-66
2022/04/03 08:23:22;;;;;;;1.57;1.33;;;4.30;98.00;;;;;;6244832;22;20703;-66
2022/04/03 08:25:49;;;;;;;1.20;1.00;;;4.40;98.00;;;;;;6243982;22;20407;-66
2022/04/03 08:28:17;;;;;;;1.73;1.20;;;4.40;98.00;;;;;;6244752;22;20425;-66
2022/04/03 08:30:44;;;;;;;1.20;1.00;;;4.20;98.00;;;;;;6244309;22;20390;-67
2022/04/03 08:33:11;;;;;;;1.20;1.00;;;4.30;98.00;;;;;;6244204;22;20908;-66
2022/04/03 08:35:40;;;;;;;1.30;1.27;;;4.40;98.00;;;;;;6244618;22;20766;-66
2022/04/03 08:38:09;;;;;;;1.20;1.10;;;4.60;98.00;;;;;;6244686;22;20426;-66
2022/04/03 08:40:37;;;;;;;1.60;1.10;;;4.60;98.00;;;;;;6244264;22;20947;-66
2022/04/03 08:43:05;;;;;;;1.40;1.07;;;4.60;98.00;;;;;;6244499;22;20420;-67
2022/04/03 08:45:32;;;;;;;2.90;1.47;;;4.70;98.00;;;;;;6241977;22;20803;-65
2022/04/03 08:48:02;;;;;;;1.20;1.20;;;4.70;98.00;;;;;;6243275;22;20405;-64
2022/04/03 08:50:32;;;;;;;1.30;1.20;;;4.70;98.00;;;;;;6169710;22;20815;-63
2022/04/03 08:53:01;;;;;;;1.20;1.00;;;4.70;98.00;;;;;;6119080;23;20873;-66
2022/04/03 08:55:31;;;;;;;1.30;1.20;;;4.60;98.00;;;;;;6119700;23;20975;-66
2022/04/03 08:57:58;;;;;;;1.67;1.53;;;4.90;98.00;;;;;;6119354;23;20405;-66
2022/04/03 09:00:26;;;;;;;1.20;1.00;;;5.10;98.00;;;;;;6119046;23;20944;-66
2022/04/03 09:02:53;;;;;;;2.47;1.67;;;5.30;98.00;;;;;;6119296;23;20429;-66
2022/04/03 09:05:20;;;;;;;1.20;1.00;;;5.50;98.00;;;;;;6118922;23;20398;-66
2022/04/03 09:08:01;;;;;;;3.23;2.30;;;5.70;98.00;;;;;;6119468;23;20451;-66
2022/04/03 09:10:31;;;;;;;1.30;1.20;;;5.90;98.00;;;;;;6119336;23;20426;-66
2022/04/03 09:12:58;;;;;;;1.20;1.00;;;6.00;98.00;;;;;;6119351;23;20408;-66
2022/04/03 09:15:26;;;;;;;1.40;1.20;;;6.10;98.00;;;;;;6118976;23;20399;-66
2022/04/03 09:18:05;;;;;;;1.20;1.20;;;6.30;98.00;;;;;;6119181;23;20403;-67
2022/04/03 09:20:37;;;;;;;1.70;1.50;;;6.20;98.00;;;;;;6119221;23;20437;-67
2022/04/03 09:23:12;;;;;;;2.07;1.30;;;5.90;98.00;;;;;;6119736;23;20474;-67
2022/04/03 09:25:55;;;;;;;2.50;1.53;;;5.50;98.00;;;;;;6119505;23;20968;-69
2022/04/03 09:28:42;;;;;;;1.20;1.10;;;5.30;98.00;;;;;;6119342;23;20412;-69
2022/04/03 09:31:26;;;;;;;1.20;1.00;;;5.10;98.00;;;;;;6118844;23;20427;-69
2022/04/03 09:34:00;;;;;;;1.20;1.00;;;4.90;98.00;;;;;;6119068;23;20744;-67
2022/04/03 09:36:31;;;;;;;1.20;1.00;;;4.90;98.00;;;;;;6118655;23;20402;-68
2022/04/03 09:39:07;;;;;;;1.20;0.90;;;4.80;98.00;;;;;;6120382;23;20416;-68
2022/04/03 09:41:55;;;;;;;1.30;1.30;;;4.80;98.00;;;;;;6120020;23;20436;-67
2022/04/03 09:44:33;;;;;;;1.20;1.00;;;4.70;98.00;;;;;;6120689;23;20409;-67
2022/04/03 09:47:19;;;;;;;3.20;1.53;;;5.00;98.00;;;;;;6118895;23;20463;-66
2022/04/03 09:49:52;;;;;;;1.20;1.10;;;5.10;98.00;;;;;;6120322;23;20479;-67
2022/04/03 09:52:39;;;;;;;1.50;1.10;;;5.00;98.00;;;;;;6120501;23;20424;-67
2022/04/03 09:55:19;;;;;;;1.20;1.20;;;5.00;98.00;;;;;;6120470;23;20827;-67
2022/04/03 09:57:48;;;;;;;1.20;1.00;;;4.80;98.00;;;;;;6118554;23;20426;-67
2022/04/03 10:00:29;;;;;;;1.50;1.30;;;4.70;98.00;;;;;;6119965;23;20443;-67
2022/04/03 10:02:59;;;;;;;2.13;1.40;;;4.80;98.00;;;;;;6119768;23;20412;-67
2022/04/03 10:05:28;;;;;;;1.40;1.10;;;4.90;98.00;;;;;;6119755;23;20428;-67
2022/04/03 10:07:56;;;;;;;1.20;1.07;;;5.00;98.00;;;;;;6120002;23;20721;-67
2022/04/03 10:10:23;;;;;;;1.50;1.43;;;5.20;98.00;;;;;;6120023;23;20421;-66
2022/04/03 10:12:52;;;;;;;1.43;1.40;;;5.30;98.00;;;;;;6119769;23;20406;-66
2022/04/03 10:15:19;;;;;;;1.90;1.60;;;5.50;98.00;;;;;;6120104;23;20446;-69
2022/04/03 10:17:46;;;;;;;1.20;1.13;;;5.50;98.00;;;;;;6119898;23;20923;-66
2022/04/03 10:20:14;;;;;;;1.20;1.10;;;5.50;98.00;;;;;;6120182;23;20485;-67
2022/04/03 10:22:48;;;;;;;1.20;1.10;;;5.50;98.00;;;;;;6120052;23;20471;-67
2022/04/03 10:25:23;;;;;;;1.30;1.30;;;5.50;98.00;;;;;;6095772;23;20420;-67
2022/04/03 10:27:53;;;;;;;1.20;1.10;;;5.50;98.00;;;;;;6120004;23;20428;-67
2022/04/03 10:30:34;;;;;;;1.20;1.00;;;5.50;98.00;;;;;;6093704;23;20422;-67
2022/04/03 10:33:01;;;;;;;1.30;1.20;;;5.60;97.80;;;;;;6119339;23;20402;-66
2022/04/03 10:35:28;;;;;;;1.20;0.90;;;5.60;98.00;;;;;;6119816;23;20399;-67
2022/04/03 10:38:04;;;;;;;1.20;1.00;;;5.90;98.00;;;;;;6120129;23;20405;-66
2022/04/03 10:40:33;;;;;;;1.63;1.10;;;6.40;97.90;;;;;;6119559;23;20503;-66
2022/04/03 10:43:03;;;;;;;1.40;1.10;;;6.90;95.20;;;;;;6119753;23;20449;-66
2022/04/03 10:45:32;;;;;;;1.30;1.20;;;7.10;94.20;;;;;;6119867;23;20412;-67
2022/04/03 10:48:24;;;;;;;2.10;1.23;;;7.10;92.40;;;;;;6119750;23;20435;-68
2022/04/03 10:51:05;;;;;;;1.50;1.40;;;7.10;92.40;;;;;;6120391;23;20444;-67
2022/04/03 10:53:34;;;;;;;2.13;1.97;;;7.00;91.40;;;;;;6120675;23;20645;-67
2022/04/03 10:56:07;;;;;;;2.50;1.63;;;6.90;91.50;;;;;;6120857;23;20461;-66
2022/04/03 10:58:47;;;;;;;1.20;1.17;;;6.80;90.20;;;;;;6120960;23;20448;-66
2022/04/03 11:01:26;;;;;;;1.20;1.00;;;6.70;89.00;;;;;;6120661;23;20427;-67
2022/04/03 11:03:55;;;;;;;1.30;1.20;;;6.90;92.00;;;;;;6120818;23;20502;-67
2022/04/03 11:06:27;;;;;;;1.30;1.17;;;6.90;87.30;;;;;;6094890;23;20459;-66
2022/04/03 11:09:09;;;;;;;1.20;1.07;;;6.80;88.10;;;;;;6120889;23;20407;-67
2022/04/03 11:11:38;;;;;;;2.13;1.67;;;6.50;91.00;;;;;;6120599;23;20660;-67
2022/04/03 11:14:08;;;;;;;1.20;1.10;;;6.40;91.90;;;;;;6120187;23;20459;-67
2022/04/03 11:16:54;;;;;;;1.20;1.00;;;6.40;91.40;;;;;;6120983;23;20511;-67
2022/04/03 11:19:37;;;;;;;1.20;1.00;;;6.40;90.30;;;;;;6120354;23;20482;-67
2022/04/03 11:22:20;;;;;;;1.20;1.10;;;6.30;92.00;;;;;;6120648;23;20488;-67
2022/04/03 11:24:49;;;;;;;1.20;1.00;;;6.40;92.00;;;;;;6119728;23;20725;-67
2022/04/03 11:27:16;;;;;;;1.60;1.13;;;6.80;92.50;;;;;;6120584;23;20866;-67
2022/04/03 11:29:46;;;;;;;1.20;1.20;;;7.10;92.70;;;;;;6120518;23;20421;-67
2022/04/03 11:32:19;;;;;;;1.20;1.00;;;7.70;92.10;;;;;;6120965;23;20401;-68
2022/04/03 11:34:57;;;;;;;1.20;1.00;;;8.00;88.30;;;;;;6121124;23;20397;-67
2022/04/03 11:37:24;;;;;;;1.20;1.00;;;8.10;88.60;;;;;;6130272;23;20431;-68
2022/04/03 11:39:53;;;;;;;1.20;1.00;;;8.60;88.80;;;;;;6120944;23;20471;-68
2022/04/03 11:42:25;;;;;;;1.20;1.13;;;8.70;85.90;;;;;;6121234;23;20471;-68
2022/04/03 11:44:54;;;;;;;1.20;1.00;;;8.60;87.60;;;;;;6130427;23;20421;-69
2022/04/03 11:47:24;;;;;;;1.20;1.00;;;8.50;84.60;;;;;;6120075;23;20405;-67
2022/04/03 11:50:11;;;;;;;1.20;1.00;;;8.30;86.70;;;;;;6119240;23;20766;-66
2022/04/03 11:52:38;;;;;;;1.37;1.20;;;8.30;89.00;;;;;;6119507;23;20458;-67
2022/04/03 11:55:10;;;;;;;1.30;1.17;;;8.30;88.20;;;;;;6120655;23;20405;-68
2022/04/03 11:57:38;;;;;;;1.70;1.20;;;8.20;87.80;;;;;;6120675;23;20398;-71
2022/04/03 12:00:11;;;;;;;1.67;1.40;;;8.60;85.50;;;;;;6120192;23;20439;-68
2022/04/03 12:02:38;;;;;;;1.20;1.00;;;8.90;86.30;;;;;;6120221;23;20433;-68
2022/04/03 12:05:05;;;;;;;1.20;1.10;;;9.50;88.30;;;;;;6120304;23;20935;-67
2022/04/03 12:07:34;;;;;;;2.70;1.43;;;9.80;83.10;;;;;;6120609;23;20473;-68
2022/04/03 12:10:01;;;;;;;1.20;1.00;;;10.20;84.60;;;;;;6120641;23;20422;-68
2022/04/03 12:12:28;;;;;;;1.20;0.90;;;10.40;83.80;;;;;;6120661;23;20454;-68
2022/04/03 12:14:57;;;;;;;1.30;1.30;;;10.70;83.40;;;;;;6120555;23;20417;-68
2022/04/03 12:17:25;;;;;;;1.20;1.00;;;10.70;82.80;;;;;;6120462;23;20429;-68
2022/04/03 12:19:52;;;;;;;1.20;1.10;;;10.40;78.90;;;;;;6120347;23;20545;-68
2022/04/03 12:22:22;;;;;;;1.20;1.10;;;10.10;77.60;;;;;;6120497;23;21020;-69
2022/04/03 12:24:53;;;;;;;1.30;1.00;;;9.70;79.70;;;;;;6120829;23;20492;-69
2022/04/03 12:27:25;;;;;;;1.57;1.23;;;9.30;79.40;;;;;;6120940;23;20401;-68
2022/04/03 12:29:54;;;;;;;1.20;1.00;;;9.00;82.10;;;;;;6120707;23;20405;-69
2022/04/03 12:32:35;;;;;;;1.20;1.10;;;8.60;80.90;;;;;;6120131;23;20463;-68
2022/04/03 12:35:02;;;;;;;1.20;0.90;;;8.20;82.30;;;;;;6120567;23;20398;-69
2022/04/03 12:37:34;;;;;;;1.20;1.10;;;8.00;83.80;;;;;;6120139;23;20434;-68
2022/04/03 12:40:06;;;;;;;1.20;0.90;;;7.80;83.60;;;;;;6120254;23;20936;-69
2022/04/03 12:42:34;;;;;;;1.20;1.00;;;7.80;83.40;;;;;;6119699;23;20448;-69
2022/04/03 12:45:05;;;;;;;1.40;1.30;;;8.30;84.20;;;;;;6120482;23;20736;-69
2022/04/03 12:47:39;;;;;;;1.23;1.10;;;8.70;84.00;;;;;;6120696;23;20401;-68
2022/04/03 12:50:11;;;;;;;1.20;1.10;;;9.00;82.70;;;;;;6120379;23;20434;-69
2022/04/03 12:52:40;;;;;;;1.20;1.00;;;8.70;83.40;;;;;;6094332;23;20461;-68
2022/04/03 12:55:09;;;;;;;1.20;1.20;;;8.40;83.90;;;;;;6095261;23;20451;-69
2022/04/03 13:00:21;;;;;;;1.20;1.00;;;7.70;82.90;;;;;;6120450;23;20749;-68
2022/04/03 13:02:50;;;;;;;1.20;1.00;;;7.40;83.50;;;;;;6120139;23;20505;-68
2022/04/03 13:05:18;;;;;;;1.50;1.27;;;7.20;84.30;;;;;;6120949;23;20402;-67
2022/04/03 13:07:46;;;;;;;1.20;1.00;;;7.00;84.40;;;;;;6094489;23;20427;-67
2022/04/03 13:10:17;;;;;;;1.70;1.10;;;6.90;84.80;;;;;;6120415;23;20425;-68